Monday, June 25, 2018, 7:16 PM GMT
Back to Local

CWKG, Kejimkujik 1, N. S.

Location: , , Canada Lat: 44.433
Local Time: 7:16 PM GMT (19:16 GMT) Lon: -65.2
Time Zone: GMT Elev: 416 ft

Show me the last for .
Show Coded

Time T Td Feel RH Dir Speed Gust Alt SLP Vis Weather Sky Remarks
2018-06-25 19:00 55 50 - 83 20° 7 21 - 29.80 0 Peak wind: 23 mph (20 kts) from 50° at 25 min
2018-06-25 18:00 56 51 - 83 40° 9 18 - 29.79 0 Peak wind: 21 mph (19 kts) from 40° at 43 min
2018-06-25 17:00 53 51 - 94 20° 8 21 - 29.78 0 Peak wind: 20 mph (18 kts) from 30° at 51 min
2018-06-25 16:00 53 52 - 97 40° 7 - - 29.77 0 None
2018-06-25 15:00 54 52 - 92 30° 6 - - 29.77 0 Peak wind: 20 mph (18 kts) from 10° at 47 min
1-hr Precip Total: 0.03"
2018-06-25 14:00 55 53 - 93 50° 7 - - 29.77 0 1-hr Precip Total: 0.07"
2018-06-25 13:00 55 53 - 93 30° 5 - - 29.77 0 1-hr Precip Total: 0.05"
2018-06-25 12:00 55 53 - 93 70° 5 - - 29.75 0 1-hr Precip Total: 0.08"
2018-06-25 11:00 56 54 - 93 60° 3 - - 29.75 0 1-hr Precip Total: 0.20"
2018-06-25 10:00 57 55 - 92 70° 5 - - 29.76 0 1-hr Precip Total: 0.21"
2018-06-25 09:00 57 53 - 84 80° 3 - - 29.76 0 None
2018-06-25 08:00 58 54 - 86 60° 2 - - 29.77 0 None
2018-06-25 07:00 59 54 - 83 70° 1 - - 29.79 0 None
2018-06-25 06:00 59 54 - 83 240° 1 - - 29.81 0 None
2018-06-25 05:00 59 54 - 82 300° 2 - - 29.81 0 None
2018-06-25 04:00 60 53 - 80 270° 2 - - 29.82 0 None
2018-06-25 03:00 60 53 - 77 300° 1 - - 29.84 0 None
2018-06-25 02:00 62 54 - 75 290° 3 - - 29.83 0 None
2018-06-25 01:00 63 54 - 71 290° 3 - - 29.82 0 None
2018-06-25 00:00 65 54 - 67 300° 3 - - 29.82 0 None
2018-06-24 23:00 68 54 - 62 310° 3 - - 29.80 0 None
2018-06-24 22:00 71 54 76 55 310° 5 - - 29.77 0 None
2018-06-24 21:00 74 54 77 50 340° 2 - - 29.76 0 None
2018-06-24 20:00 74 54 77 50 330° 3 - - 29.75 0 None

Support USWX by starting your Amazon purchase here.